Historyczne dane pomiarowe

Dodano dane terminowe – wersja testowa.

Dane z okresu 1951-2019

Wersja bazy: 1.34 [2019-03-16, lista zmian], aktualizacja planowana na 2019-04-15

Dane meteo z obszaru Polski uzyskane na podstawie danych udostępnionych przez Instytut Meteorologii i Gospodarki Wodnej – Państwowy Instytut Badawczy.

 

Wybierz Datę:    

       

TemperaturaWilgotnośćZachmurzenieWiatrCiśnienieWidzialnośćZjawiska
 Data    tng td wb rh cc ccl cl cm ch dir g1 g2 mslp ppp      
1999-07-30 00:00:00 12.4--- 9.1 10.680wxwx2wx--1020.4 998.0 0.0---wx
1999-07-30 01:00:00 11.8--- 7.6 9.675wxwx2wx--1020.5 998.0----wx
1999-07-30 02:00:00 11.4--- 8.4 9.882wxwx2wx--1020.5 998.0----wx
1999-07-30 03:00:00 11.2--- 9.7 10.491wxwx1wx--1020.5 998.0----wx
1999-07-30 04:00:00 13.2--- 11.1 12.087wxwx2wx--1020.1 997.8----wx
1999-07-30 05:00:00 16.0--- 12.6 14.080wxwx2wx--1020.1 998.0----wx
1999-07-30 06:00:00 18.0--- 11.1 14.064wxwx3wx--1020.0 998.0 0.0---wx
1999-07-30 07:00:00 19.7--- 12.2 15.262wxwx2wx--1019.9 998.1----wx
1999-07-30 08:00:00 20.7--- 12.2 15.658wxwxwx3wx--1019.9 998.1----wx
1999-07-30 09:00:00 22.0--- 11.2 15.650wxwxwx3wx--1019.8 998.1----wx
1999-07-30 10:00:00 22.9--- 10.5 15.645wxwxwx3wx--1019.6 998.0----wx
1999-07-30 11:00:00 23.9--- 9.4 15.540wxwxwx5wx--1018.9 997.4----wx
1999-07-30 12:00:00 24.6--- 8.6 15.436wxwxwx6wx--1018.5 997.0 0.0---wx
1999-07-30 13:00:00 25.2--- 8.0 15.433wxwxwx6wx--1017.8 996.4----wx
1999-07-30 14:00:00 25.2--- 8.0 15.433wxwxwx5wx--1017.5 996.1----wx
1999-07-30 15:00:00 25.2--- 8.0 15.433wxwxwx5wx--1017.2 995.8----wx
1999-07-30 16:00:00 24.8--- 8.4 15.435wxwxwx5wx--1017.1 995.7----wx
1999-07-30 17:00:00 24.3--- 8.8 15.437wxwxwx4wx--1016.9 995.5----wx
1999-07-30 18:00:00 22.6--- 11.6 16.050wxwxwx4wx--1017.6 996.0 0.0---wx
1999-07-30 19:00:00 19.0--- 12.3 15.065wxwxwx5wx--1017.9 996.0----wx
1999-07-30 20:00:00 17.2--- 11.7 14.070wxwxwx4wx--1018.0 996.0----wx
1999-07-30 21:00:00 17.1--- 12.0 14.172wxwxwx4wx--1018.4 996.4----wx
1999-07-30 22:00:00 16.8--- 11.7 13.872wxwxwx4wx--1018.4 996.4----wx
1999-07-30 23:00:00 16.1--- 10.5 12.969wxwx4wx--1018.8 996.7----wx

 

Źródłem pochodzenia danych jest Instytut Meteorologii i Gospodarki Wodnej – Państwowy Instytut Badawczy. Dane Instytutu Meteorologii i Gospodarki Wodnej – Państwowego Instytutu Badawczego zostały przetworzone.

Dane źródłowe można odnaleźć na stronie https://dane.imgw.pl